Time;durP1;ratioP1;P1;durP2;ratioP2;P2;SDS_P1;SDS_P2;PMS_P1;PMS_P2;Temp;Humidity;BMP_temperature;BMP_pressure;BME280_temperature;BME280_humidity;BME280_pressure;Samples;Min_cycle;Max_cycle;Signal;HPM_P1;HPM_P2
2023/06/03 00:02:32;;;;;;;2.75;1.60;;;;;;;10.68;100.00;102375.31;4996594;28;20479;-75
2023/06/03 00:05:17;;;;;;;5.55;1.88;;;;;;;10.65;100.00;102378.00;4997648;28;20477;-76
2023/06/03 00:08:01;;;;;;;3.05;1.70;;;;;;;10.64;100.00;102387.75;4997047;28;20096;-75
2023/06/03 00:10:46;;;;;;;2.45;1.48;;;;;;;10.63;100.00;102386.00;4997792;28;20151;-75
2023/06/03 00:13:30;;;;;;;2.85;1.60;;;;;;;10.58;100.00;102380.78;4997616;28;20088;-76
2023/06/03 00:16:14;;;;;;;4.28;1.80;;;;;;;10.56;100.00;102382.59;4997698;28;20377;-76
2023/06/03 00:18:59;;;;;;;2.53;1.65;;;;;;;10.53;100.00;102387.97;4982679;28;20061;-75
2023/06/03 00:21:49;;;;;;;1.50;1.40;;;;;;;10.49;100.00;102382.75;4983095;28;20052;-75
2023/06/03 00:24:33;;;;;;;3.67;1.70;;;;;;;10.45;100.00;102382.81;4982678;28;20105;-75
2023/06/03 00:27:18;;;;;;;3.13;1.52;;;;;;;10.43;100.00;102384.63;4997512;28;20041;-76
2023/06/03 00:30:03;;;;;;;3.08;1.40;;;;;;;10.38;100.00;102381.16;4997173;28;20413;-76
2023/06/03 00:32:46;;;;;;;4.15;1.48;;;;;;;10.33;100.00;102383.03;5017133;28;20111;-76
2023/06/03 00:35:32;;;;;;;2.83;1.63;;;;;;;10.31;100.00;102384.84;5017213;28;20060;-76
2023/06/03 00:38:16;;;;;;;2.47;1.45;;;;;;;10.28;100.00;102380.47;5012787;28;20040;-76
2023/06/03 00:41:01;;;;;;;2.92;1.50;;;;;;;10.23;100.00;102373.53;5017354;28;20076;-75
2023/06/03 00:43:45;;;;;;;2.30;1.42;;;;;;;10.24;100.00;102385.88;5016914;28;20119;-75
2023/06/03 00:46:35;;;;;;;2.10;1.30;;;;;;;10.24;100.00;102383.22;5017136;28;20071;-75
2023/06/03 00:49:20;;;;;;;3.30;1.40;;;;;;;10.21;100.00;102383.25;5002612;28;20083;-76
2023/06/03 00:52:06;;;;;;;2.72;1.30;;;;;;;10.18;100.00;102382.44;5017332;28;22071;-76
2023/06/03 00:54:51;;;;;;;3.83;1.63;;;;;;;10.18;100.00;102378.91;5016351;28;20056;-75
2023/06/03 00:57:35;;;;;;;1.65;1.13;;;;;;;10.15;100.00;102381.63;5001230;28;20059;-76
2023/06/03 01:00:20;;;;;;;2.17;1.50;;;;;;;10.11;100.00;102383.44;5015340;28;20106;-76
2023/06/03 01:03:13;;;;;;;2.45;1.23;;;;;;;10.10;100.00;102381.72;5015941;28;20134;-76
2023/06/03 01:06:34;;;;;;;2.72;1.42;;;;;;;10.08;100.00;102388.78;5016063;28;20905;-75
2023/06/03 01:09:44;;;;;;;3.72;1.40;;;;;;;10.05;100.00;102389.75;5016118;28;20079;-76
2023/06/03 01:13:10;;;;;;;1.90;1.17;;;;;;;10.03;100.00;102390.66;5016356;28;20515;-75
2023/06/03 01:15:56;;;;;;;2.03;1.10;;;;;;;9.99;100.00;102387.22;5002184;28;20385;-75
2023/06/03 01:18:41;;;;;;;2.70;1.40;;;;;;;9.99;100.00;102388.97;5000727;28;20039;-75
2023/06/03 01:21:34;;;;;;;2.35;1.40;;;;;;;9.96;100.00;102391.69;5001009;28;20483;-77
2023/06/03 01:24:18;;;;;;;1.63;1.23;;;;;;;9.93;100.00;102392.59;5015957;28;20044;-75
2023/06/03 01:27:03;;;;;;;1.30;1.20;;;;;;;9.89;100.00;102394.44;5014419;28;20095;-77
2023/06/03 01:29:47;;;;;;;1.48;1.25;;;;;;;9.86;100.00;102389.19;5001506;28;20064;-76
2023/06/03 01:32:32;;;;;;;1.42;1.30;;;;;;;9.83;100.00;102399.84;4998945;28;20180;-75
2023/06/03 01:35:17;;;;;;;1.83;1.15;;;;;;;9.79;100.00;102392.84;5014275;28;20090;-75
2023/06/03 01:38:01;;;;;;;1.30;1.20;;;;;;;9.76;100.00;102391.13;5015119;28;20052;-75
2023/06/03 01:40:46;;;;;;;2.70;1.08;;;;;;;9.75;100.00;102399.94;5000019;28;20044;-76
2023/06/03 01:43:30;;;;;;;2.10;1.27;;;;;;;9.72;100.00;102393.84;5014476;28;20052;-74
2023/06/03 01:46:14;;;;;;;2.45;1.40;;;;;;;9.71;100.00;102400.03;5013824;28;20107;-75
2023/06/03 01:48:59;;;;;;;1.60;1.10;;;;;;;9.68;100.00;102394.78;5014702;28;20059;-75
2023/06/03 01:51:43;;;;;;;4.78;1.15;;;;;;;9.68;100.00;102394.78;5014284;28;20176;-74
2023/06/03 01:54:28;;;;;;;1.73;1.20;;;;;;;9.66;100.00;102397.47;5014907;28;20060;-76
2023/06/03 01:57:13;;;;;;;1.60;1.13;;;;;;;9.68;100.00;102405.34;5015045;28;20048;-76
2023/06/03 01:59:57;;;;;;;2.25;1.08;;;;;;;9.67;100.00;102398.31;4999948;28;20528;-74
2023/06/03 02:02:41;;;;;;;1.25;1.08;;;;;;;9.65;100.00;102401.88;5014828;28;20119;-75
2023/06/03 02:05:25;;;;;;;1.17;1.02;;;;;;;9.68;100.00;102400.06;4988946;28;20131;-75
2023/06/03 02:08:10;;;;;;;1.73;1.30;;;;;;;9.68;100.00;102400.06;5014407;28;21788;-75
2023/06/03 02:10:55;;;;;;;1.45;1.08;;;;;;;9.69;100.00;102386.81;5014703;28;20107;-74
2023/06/03 02:13:39;;;;;;;1.98;1.10;;;;;;;9.73;100.00;102398.22;5014787;28;20044;-75
2023/06/03 02:16:23;;;;;;;1.88;1.30;;;;;;;9.76;100.00;102392.91;5015184;28;20098;-76
2023/06/03 02:19:19;;;;;;;1.55;1.17;;;;;;;9.79;100.00;102398.13;5014866;28;20122;-76
2023/06/03 02:22:05;;;;;;;1.42;1.05;;;;;;;9.82;100.00;102403.38;4999961;28;20152;-74
2023/06/03 02:24:49;;;;;;;1.58;1.00;;;;;;;9.85;100.00;102397.13;5014679;28;20519;-76
2023/06/03 02:27:35;;;;;;;2.03;1.23;;;;;;;9.86;100.00;102405.06;5014997;28;20784;-76
2023/06/03 02:30:19;;;;;;;1.63;1.13;;;;;;;9.88;100.00;102397.09;5014225;28;20040;-76
2023/06/03 02:33:03;;;;;;;1.88;1.00;;;;;;;9.89;100.00;102394.44;5014516;28;20158;-76
2023/06/03 02:35:47;;;;;;;2.03;1.13;;;;;;;9.88;100.00;102397.97;5014686;28;20052;-76
2023/06/03 02:38:31;;;;;;;1.55;1.10;;;;;;;9.87;100.00;102395.34;5014643;28;20080;-76
2023/06/03 02:41:15;;;;;;;2.03;1.05;;;;;;;9.85;100.00;102387.44;4999678;28;20353;-76
2023/06/03 02:43:59;;;;;;;1.95;1.15;;;;;;;9.85;100.00;102389.19;5014313;28;20049;-75
2023/06/03 02:46:44;;;;;;;2.08;1.05;;;;;;;9.83;100.00;102389.25;5014374;28;20231;-75
2023/06/03 02:49:28;;;;;;;1.52;0.90;;;;;;;9.81;100.00;102390.16;5010908;28;20040;-75
2023/06/03 02:52:12;;;;;;;2.25;1.20;;;;;;;9.76;100.00;102387.63;5004558;28;20091;-75
2023/06/03 02:54:56;;;;;;;0.88;0.88;;;;;;;9.71;100.00;102390.34;5013852;28;20890;-75
2023/06/03 02:57:40;;;;;;;1.55;1.25;;;;;;;9.67;100.00;102393.03;4996371;28;20572;-75
2023/06/03 03:00:24;;;;;;;1.08;1.00;;;;;;;9.63;100.00;102389.56;5014530;28;20136;-75
2023/06/03 03:03:09;;;;;;;1.05;1.00;;;;;;;9.59;100.00;102396.69;5014494;28;20122;-76
2023/06/03 03:05:54;;;;;;;2.50;1.20;;;;;;;9.56;100.00;102391.47;5013263;28;20077;-75
2023/06/03 03:08:38;;;;;;;1.58;1.05;;;;;;;9.53;100.00;102394.16;5013998;28;20099;-74
2023/06/03 03:11:22;;;;;;;1.30;1.00;;;;;;;9.49;100.00;102398.59;4998248;28;20103;-75
2023/06/03 03:14:07;;;;;;;1.65;1.08;;;;;;;9.45;100.00;102398.69;5015143;28;20507;-75
2023/06/03 03:16:52;;;;;;;2.17;1.10;;;;;;;9.41;100.00;102404.94;5013999;28;20059;-75
2023/06/03 03:19:36;;;;;;;1.85;0.90;;;;;;;9.36;100.00;102405.88;4998511;28;20047;-76
2023/06/03 03:22:20;;;;;;;0.80;0.75;;;;;;;9.32;100.00;102404.16;5001214;28;20412;-75
2023/06/03 03:25:04;;;;;;;1.20;0.88;;;;;;;9.31;100.00;102401.56;5013915;28;20138;-77
2023/06/03 03:27:49;;;;;;;1.20;1.10;;;;;;;9.27;100.00;102397.22;4998313;28;20053;-76
2023/06/03 03:30:33;;;;;;;1.92;1.10;;;;;;;9.24;100.00;102385.78;5013889;28;20053;-75
2023/06/03 03:33:17;;;;;;;1.65;1.08;;;;;;;9.21;100.00;102393.75;5012969;28;20423;-76
2023/06/03 03:36:08;;;;;;;0.88;0.88;;;;;;;9.20;100.00;102394.66;5013758;28;20055;-76
2023/06/03 03:39:03;;;;;;;1.45;1.17;;;;;;;9.17;100.00;102389.44;5013792;28;20056;-75
2023/06/03 03:41:47;;;;;;;2.45;1.33;;;;;;;9.17;100.00;102399.09;4999198;28;20570;-77
2023/06/03 03:44:32;;;;;;;1.45;1.08;;;;;;;9.18;100.00;102398.22;5014192;28;20060;-76
2023/06/03 03:47:22;;;;;;;3.35;1.10;;;;;;;9.19;100.00;102406.13;5013887;28;20123;-76
2023/06/03 03:50:28;;;;;;;1.63;1.00;;;;;;;9.21;100.00;102399.03;5013279;28;20052;-76
2023/06/03 03:53:17;;;;;;;2.72;1.08;;;;;;;9.25;100.00;102402.50;5013999;28;20103;-75
2023/06/03 03:56:01;;;;;;;1.48;1.20;;;;;;;9.27;100.00;102400.72;5013518;28;20040;-75
2023/06/03 03:58:47;;;;;;;1.20;0.98;;;;;;;9.34;100.00;102397.09;5013244;28;20147;-75
2023/06/03 04:01:38;;;;;;;1.45;1.00;;;;;;;9.40;100.00;102400.53;4998429;28;20104;-75
2023/06/03 04:04:43;;;;;;;1.88;1.08;;;;;;;9.43;100.00;102397.84;5013702;28;20764;-75
2023/06/03 04:07:35;;;;;;;1.92;1.15;;;;;;;9.46;100.00;102408.34;5012955;28;20271;-75
2023/06/03 04:10:21;;;;;;;1.33;0.98;;;;;;;9.49;100.00;102405.69;4985274;28;20688;-76
2023/06/03 04:13:06;;;;;;;1.63;1.20;;;;;;;9.51;100.00;102406.53;5013034;28;20107;-75
2023/06/03 04:15:51;;;;;;;1.40;1.30;;;;;;;9.53;100.00;102404.72;5013220;28;20048;-76
2023/06/03 04:18:40;;;;;;;1.70;1.25;;;;;;;9.56;100.00;102409.97;5013622;28;20060;-76
2023/06/03 04:21:24;;;;;;;1.20;1.05;;;;;;;9.61;100.00;102409.91;5013921;28;20049;-76
2023/06/03 04:24:11;;;;;;;1.67;1.20;;;;;;;9.64;100.00;102404.53;5003568;28;20103;-76
2023/06/03 04:26:55;;;;;;;3.40;1.30;;;;;;;9.68;100.00;102400.06;4998598;28;20519;-76
2023/06/03 04:29:39;;;;;;;1.52;1.20;;;;;;;9.69;100.00;102407.13;5013347;28;20115;-75
2023/06/03 04:32:23;;;;;;;1.92;1.10;;;;;;;9.69;100.00;102404.50;5012439;28;20084;-75
2023/06/03 04:35:07;;;;;;;1.33;1.00;;;;;;;9.69;100.00;102407.13;5014515;28;20179;-75
2023/06/03 04:37:51;;;;;;;2.50;1.10;;;;;;;9.69;99.94;102408.00;5016077;28;20129;-75
2023/06/03 04:40:37;;;;;;;1.88;0.90;;;;;;;9.67;99.36;102411.56;5016255;28;20152;-75
2023/06/03 04:43:22;;;;;;;1.77;1.27;;;;;;;9.68;100.00;102408.88;5016802;28;22248;-75
2023/06/03 04:46:09;;;;;;;1.33;0.90;;;;;;;9.70;100.00;102415.03;5015509;28;20056;-75
2023/06/03 04:48:55;;;;;;;1.67;1.20;;;;;;;9.73;99.52;102414.09;5015900;28;20559;-75
2023/06/03 04:51:40;;;;;;;3.15;1.15;;;;;;;9.75;99.67;102413.19;5016157;28;20076;-75
2023/06/03 04:54:24;;;;;;;1.67;1.23;;;;;;;9.78;99.43;102412.25;5016324;28;20044;-75
2023/06/03 04:57:08;;;;;;;1.88;1.20;;;;;;;9.77;99.29;102418.44;5017191;28;20160;-76
2023/06/03 04:59:52;;;;;;;1.30;1.20;;;;;;;9.75;99.51;102412.31;5016840;28;20299;-75
2023/06/03 05:02:36;;;;;;;1.88;1.40;;;;;;;9.73;99.23;102408.81;5016006;28;20053;-75
2023/06/03 05:05:23;;;;;;;1.45;1.10;;;;;;;9.73;99.00;102414.97;5016810;28;20103;-76
2023/06/03 05:08:08;;;;;;;1.77;1.20;;;;;;;9.78;99.80;102412.25;5015958;28;20083;-75
2023/06/03 05:10:52;;;;;;;2.35;1.35;;;;;;;9.85;99.07;102408.59;5015721;28;20036;-75
2023/06/03 05:13:36;;;;;;;2.17;1.42;;;;;;;9.89;98.51;102414.72;5016027;28;20048;-75
2023/06/03 05:16:20;;;;;;;3.00;1.13;;;;;;;9.94;98.33;102418.16;5014623;28;20108;-75
2023/06/03 05:19:04;;;;;;;2.10;1.30;;;;;;;10.07;98.58;102408.22;5015897;28;20112;-76
2023/06/03 05:21:49;;;;;;;2.15;1.20;;;;;;;10.26;98.88;102408.75;5001252;28;20048;-76
2023/06/03 05:24:33;;;;;;;2.75;1.20;;;;;;;10.53;98.96;102414.44;5000378;28;20107;-76
2023/06/03 05:27:17;;;;;;;1.75;1.27;;;;;;;10.74;97.68;102412.25;5015596;28;20881;-75
2023/06/03 05:30:02;;;;;;;1.75;1.20;;;;;;;10.92;97.09;102416.28;5001209;28;20099;-76
2023/06/03 05:32:46;;;;;;;2.47;1.30;;;;;;;11.13;97.14;102422.03;5015599;28;20052;-75
2023/06/03 05:35:30;;;;;;;2.13;1.45;;;;;;;11.37;97.36;102414.38;5015589;28;20100;-75
2023/06/03 05:38:13;;;;;;;2.30;1.35;;;;;;;11.62;95.63;102422.66;5015833;28;20075;-75
2023/06/03 05:40:59;;;;;;;2.90;1.30;;;;;;;11.83;94.66;102428.31;5015350;28;20139;-75
2023/06/03 05:43:43;;;;;;;2.33;1.10;;;;;;;12.02;94.20;102425.16;4997507;28;20049;-76
2023/06/03 05:46:27;;;;;;;1.95;1.17;;;;;;;12.23;93.85;102418.47;5015181;28;20060;-75
2023/06/03 05:49:11;;;;;;;1.63;1.20;;;;;;;12.43;93.84;102417.03;5015443;28;20124;-76
2023/06/03 05:51:55;;;;;;;1.55;1.20;;;;;;;12.61;92.64;102429.81;5014773;28;20564;-75
2023/06/03 05:54:39;;;;;;;2.25;1.30;;;;;;;12.78;92.53;102428.44;5000057;28;20555;-76
2023/06/03 05:57:24;;;;;;;1.17;1.00;;;;;;;13.04;92.57;102429.44;5015430;28;20818;-73
2023/06/03 06:00:09;;;;;;;2.63;1.20;;;;;;;13.23;92.07;102428.88;5014679;28;20047;-76
2023/06/03 06:02:53;;;;;;;1.30;1.00;;;;;;;13.42;91.02;102424.69;5015065;28;20382;-74
2023/06/03 06:05:37;;;;;;;1.95;1.13;;;;;;;13.54;89.85;102428.78;5015115;28;20048;-76
2023/06/03 06:08:21;;;;;;;1.65;1.10;;;;;;;13.70;88.59;102421.16;5014495;28;20515;-75
2023/06/03 06:11:05;;;;;;;1.13;1.00;;;;;;;13.85;88.38;102424.22;5014364;28;20053;-74
2023/06/03 06:13:50;;;;;;;1.58;0.90;;;;;;;14.05;87.80;102428.00;5014247;28;20100;-76
2023/06/03 06:16:33;;;;;;;1.70;1.13;;;;;;;14.26;87.46;102429.88;5014742;28;20051;-75
2023/06/03 06:19:18;;;;;;;1.50;1.00;;;;;;;14.43;84.63;102433.72;5014619;28;20132;-75
2023/06/03 06:22:02;;;;;;;0.98;0.90;;;;;;;14.56;85.42;102434.16;4998407;28;21338;-75
2023/06/03 06:24:47;;;;;;;2.47;1.10;;;;;;;14.75;84.84;102439.69;5013207;28;20052;-75
2023/06/03 06:27:31;;;;;;;2.15;1.00;;;;;;;14.84;83.81;102446.47;5012107;28;20037;-76
2023/06/03 06:30:16;;;;;;;1.48;1.00;;;;;;;15.03;82.73;102443.97;5014121;28;22430;-75
2023/06/03 06:33:01;;;;;;;1.10;1.00;;;;;;;15.23;82.98;102436.97;5014259;28;20067;-74
2023/06/03 06:35:45;;;;;;;1.02;0.85;;;;;;;15.46;80.61;102436.06;4999183;28;20132;-75
2023/06/03 06:38:34;;;;;;;0.75;0.70;;;;;;;15.66;79.55;102433.47;5013959;28;20056;-75
2023/06/03 06:41:19;;;;;;;1.33;1.00;;;;;;;15.85;80.96;102447.78;4999111;28;20186;-75
2023/06/03 06:44:03;;;;;;;2.15;0.90;;;;;;;16.06;78.86;102439.81;5013792;28;20064;-75
2023/06/03 06:46:51;;;;;;;0.98;0.90;;;;;;;16.13;77.98;102441.28;5013220;28;20597;-75
2023/06/03 06:49:36;;;;;;;1.20;0.90;;;;;;;16.31;78.52;102446.78;5012638;28;20044;-75
2023/06/03 06:52:22;;;;;;;1.10;0.85;;;;;;;16.50;77.86;102433.44;5013251;28;20052;-75
2023/06/03 06:55:24;;;;;;;1.33;0.90;;;;;;;16.69;74.59;102438.81;5013809;28;21378;-75
2023/06/03 06:58:09;;;;;;;2.13;0.90;;;;;;;16.70;77.51;102440.56;4997476;28;20115;-75
2023/06/03 07:00:54;;;;;;;1.20;0.75;;;;;;;16.63;77.20;102443.56;5013896;28;20048;-74
2023/06/03 07:03:38;;;;;;;1.33;1.10;;;;;;;16.49;77.13;102442.41;5013147;28;20202;-75
2023/06/03 07:06:22;;;;;;;0.60;0.60;;;;;;;16.32;76.40;102450.28;5013492;28;20210;-75
2023/06/03 07:09:06;;;;;;;1.58;1.10;;;;;;;16.19;76.34;102447.31;5013837;28;20071;-74
2023/06/03 07:11:51;;;;;;;2.15;1.00;;;;;;;16.07;76.46;102444.22;5013881;28;20138;-76
2023/06/03 07:14:35;;;;;;;1.42;0.90;;;;;;;15.95;76.25;102442.09;5013394;28;20468;-75
2023/06/03 07:17:19;;;;;;;1.17;0.80;;;;;;;15.75;76.79;102451.81;5013510;28;20190;-76
2023/06/03 07:20:07;;;;;;;1.17;0.80;;;;;;;15.60;76.73;102448.81;5013125;28;20057;-75
2023/06/03 07:22:51;;;;;;;0.98;0.90;;;;;;;15.42;77.23;102449.59;5014018;28;20044;-77
2023/06/03 07:25:45;;;;;;;0.98;0.80;;;;;;;15.25;76.66;102450.25;5013549;28;20084;-81
2023/06/03 07:28:34;;;;;;;1.83;0.90;;;;;;;15.13;77.25;102451.59;5012707;28;20044;-76
2023/06/03 07:31:18;;;;;;;1.33;1.00;;;;;;;14.98;76.67;102448.59;5012894;28;20052;-75
2023/06/03 07:34:03;;;;;;;2.88;1.00;;;;;;;14.92;77.91;102456.84;4998085;28;20076;-75
2023/06/03 07:36:52;;;;;;;1.90;1.00;;;;;;;14.89;78.22;102456.97;5012122;28;20044;-74
2023/06/03 07:39:36;;;;;;;1.60;0.95;;;;;;;15.10;79.26;102451.72;5013659;28;20080;-76
2023/06/03 07:42:21;;;;;;;1.20;0.85;;;;;;;15.34;78.00;102453.44;4996973;28;20075;-75
2023/06/03 07:45:06;;;;;;;1.73;1.05;;;;;;;15.60;77.16;102459.47;5012543;28;20535;-74
2023/06/03 07:47:50;;;;;;;1.70;0.85;;;;;;;15.94;76.90;102461.72;5013588;28;20072;-75
2023/06/03 07:50:36;;;;;;;0.90;0.70;;;;;;;16.24;74.21;102466.69;5012991;28;20052;-75
2023/06/03 07:53:30;;;;;;;1.00;0.90;;;;;;;16.45;72.71;102464.00;5013061;28;20119;-74
2023/06/03 07:56:14;;;;;;;1.55;0.80;;;;;;;16.72;72.59;102464.53;5013493;28;20032;-75
2023/06/03 07:59:00;;;;;;;0.85;0.80;;;;;;;16.98;71.83;102470.47;5012666;28;20938;-75
2023/06/03 08:01:44;;;;;;;1.48;0.95;;;;;;;17.22;70.14;102476.50;5012567;28;20076;-75
2023/06/03 08:04:31;;;;;;;0.70;0.70;;;;;;;17.48;67.80;102469.03;5011686;28;20096;-76
2023/06/03 08:07:15;;;;;;;1.20;1.05;;;;;;;17.61;66.84;102473.78;4997709;28;20508;-75
2023/06/03 08:10:00;;;;;;;1.73;0.90;;;;;;;17.64;66.30;102473.63;5015714;28;20067;-75
2023/06/03 08:12:45;;;;;;;3.22;0.93;;;;;;;17.76;65.92;102472.16;5018058;28;20044;-75
2023/06/03 08:15:35;;;;;;;1.88;0.80;;;;;;;17.85;65.55;102465.44;5016693;28;20052;-75
2023/06/03 08:18:36;;;;;;;1.55;1.00;;;;;;;18.05;61.28;102459.97;5016876;28;20400;-76
2023/06/03 08:21:27;;;;;;;2.35;1.00;;;;;;;18.27;64.15;102466.91;5016297;28;20084;-76
2023/06/03 08:24:12;;;;;;;2.08;0.80;;;;;;;18.44;63.75;102459.78;5016436;28;20819;-73
2023/06/03 08:26:56;;;;;;;1.45;0.80;;;;;;;18.63;63.64;102461.47;5016343;28;20044;-75
2023/06/03 08:29:41;;;;;;;0.70;0.60;;;;;;;18.85;63.56;102464.69;5016300;28;20107;-76
2023/06/03 08:32:25;;;;;;;1.55;0.90;;;;;;;18.97;62.78;102464.97;5016191;28;20051;-75
2023/06/03 08:35:11;;;;;;;2.97;0.70;;;;;;;18.98;61.18;102462.22;5017294;28;20048;-75
2023/06/03 08:37:56;;;;;;;1.80;0.80;;;;;;;18.98;61.18;102458.66;5016251;28;20080;-77
2023/06/03 08:40:46;;;;;;;1.13;0.80;;;;;;;19.09;60.78;102452.72;5016836;28;20047;-75
2023/06/03 08:43:38;;;;;;;0.80;0.65;;;;;;;19.29;60.45;102448.03;5016934;28;20148;-75
2023/06/03 08:46:26;;;;;;;0.90;0.77;;;;;;;19.50;61.81;102451.31;5016911;28;20115;-74
2023/06/03 08:49:11;;;;;;;1.38;0.70;;;;;;;19.64;61.54;102445.13;5001265;28;20068;-75
2023/06/03 08:51:57;;;;;;;0.82;0.82;;;;;;;19.65;60.59;102445.03;5014762;28;20530;-76
2023/06/03 08:54:41;;;;;;;2.53;0.80;;;;;;;19.65;60.58;102449.53;5016542;28;20044;-74
2023/06/03 08:57:28;;;;;;;0.80;0.70;;;;;;;19.62;59.42;102447.88;5016545;28;20063;-75
2023/06/03 09:00:13;;;;;;;0.93;0.75;;;;;;;19.74;60.85;102440.06;5000985;28;20057;-75
2023/06/03 09:02:57;;;;;;;2.15;0.70;;;;;;;19.94;60.79;102444.25;5015045;28;20044;-76
2023/06/03 09:05:42;;;;;;;1.40;0.80;;;;;;;20.05;60.14;102440.94;5000641;28;20121;-75
2023/06/03 09:08:27;;;;;;;1.75;1.00;;;;;;;20.19;60.24;102446.34;5000761;28;20124;-74
2023/06/03 09:11:12;;;;;;;2.03;0.90;;;;;;;20.34;60.35;102438.28;5000734;28;20447;-77
2023/06/03 09:13:56;;;;;;;0.65;0.55;;;;;;;20.45;59.06;102430.41;5001053;28;20043;-76
2023/06/03 09:16:41;;;;;;;1.38;0.70;;;;;;;20.59;58.09;102439.44;5014970;28;20515;-76
2023/06/03 09:19:26;;;;;;;1.05;0.88;;;;;;;20.66;56.67;102430.03;5000824;28;20388;-76
2023/06/03 09:22:10;;;;;;;1.00;0.70;;;;;;;20.70;56.53;102436.91;5016195;28;20056;-75
2023/06/03 09:24:54;;;;;;;1.05;0.75;;;;;;;20.63;54.26;102443.66;5016159;28;20053;-76
2023/06/03 09:27:39;;;;;;;1.42;0.70;;;;;;;20.43;49.67;102444.91;5000294;28;20078;-82
2023/06/03 09:30:23;;;;;;;1.38;0.70;;;;;;;20.35;51.41;102431.94;5014542;28;20108;-76
2023/06/03 09:33:07;;;;;;;0.80;0.80;;;;;;;20.38;51.41;102426.38;4990340;28;20155;-75
2023/06/03 09:36:12;;;;;;;0.80;0.80;;;;;;;20.29;44.56;102432.31;4995054;28;20101;-76
2023/06/03 09:38:57;;;;;;;1.45;0.80;;;;;;;20.30;49.11;102429.53;4981347;28;20060;-74
2023/06/03 09:41:41;;;;;;;0.90;0.70;;;;;;;20.40;46.49;102435.22;4996702;28;20084;-77
2023/06/03 09:44:49;;;;;;;1.55;0.70;;;;;;;20.30;44.27;102439.44;4996156;28;20096;-76
2023/06/03 09:47:38;;;;;;;0.65;0.65;;;;;;;20.42;46.15;102444.03;4995832;28;20628;-76
2023/06/03 09:50:24;;;;;;;0.98;0.75;;;;;;;20.45;46.21;102429.53;4995781;28;20120;-75
2023/06/03 09:53:18;;;;;;;1.33;0.80;;;;;;;20.59;41.61;102428.69;4995928;28;20413;-76
2023/06/03 09:56:23;;;;;;;1.17;0.80;;;;;;;20.61;42.74;102426.75;4980966;28;20921;-75
2023/06/03 09:59:18;;;;;;;0.82;0.63;;;;;;;20.69;42.97;102431.66;4996209;28;20045;-74
2023/06/03 10:02:09;;;;;;;0.88;0.70;;;;;;;20.82;43.31;102429.91;4981447;28;20048;-76
2023/06/03 10:04:53;;;;;;;2.53;0.80;;;;;;;20.62;42.83;102418.59;4994739;28;20045;-81
2023/06/03 10:07:46;;;;;;;1.55;0.65;;;;;;;20.38;40.45;102421.00;4980978;28;20060;-76
2023/06/03 10:10:32;;;;;;;1.70;0.98;;;;;;;20.35;43.96;102421.19;4995925;28;20125;-76
2023/06/03 10:13:19;;;;;;;2.22;0.70;;;;;;;20.45;44.30;102421.47;4995266;28;20606;-77
2023/06/03 10:16:09;;;;;;;0.75;0.70;;;;;;;20.56;42.47;102424.38;4995316;28;20619;-75
2023/06/03 10:18:54;;;;;;;1.50;0.88;;;;;;;20.48;42.75;102424.84;4996099;28;20093;-78
2023/06/03 10:21:39;;;;;;;1.05;0.75;;;;;;;20.32;43.12;102427.63;4980836;28;20048;-76
2023/06/03 10:24:26;;;;;;;0.70;0.70;;;;;;;20.39;43.73;102432.63;4981136;28;20072;-77
2023/06/03 10:27:11;;;;;;;1.20;0.60;;;;;;;20.40;43.07;102437.91;4995516;28;20056;-77
2023/06/03 10:29:55;;;;;;;1.15;0.70;;;;;;;20.39;43.01;102432.63;4966731;28;20616;-76
2023/06/03 10:32:44;;;;;;;1.85;0.77;;;;;;;20.45;42.50;102443.00;4994493;28;20070;-76
2023/06/03 10:35:32;;;;;;;5.93;0.80;;;;;;;20.40;43.93;102424.47;4993655;28;20112;-76
2023/06/03 10:38:16;;;;;;;0.82;0.50;;;;;;;20.35;43.45;102438.19;4995436;28;20076;-77
2023/06/03 10:41:03;;;;;;;1.67;1.00;;;;;;;20.30;43.90;102431.34;4994439;28;20057;-75
2023/06/03 10:43:49;;;;;;;0.82;0.70;;;;;;;20.12;42.06;102431.56;4994859;28;20151;-77
2023/06/03 10:46:35;;;;;;;0.90;0.73;;;;;;;19.93;41.38;102429.94;4994121;28;21134;-75
2023/06/03 10:49:20;;;;;;;1.25;0.60;;;;;;;19.98;42.63;102428.84;4986069;28;20111;-76
2023/06/03 10:52:12;;;;;;;1.55;0.73;;;;;;;19.95;42.03;102422.66;4993851;28;20523;-76
2023/06/03 10:55:37;;;;;;;1.20;0.70;;;;;;;19.97;39.41;102422.59;4994224;28;20136;-74
2023/06/03 10:58:25;;;;;;;0.52;0.52;;;;;;;20.06;42.56;102423.84;4994076;28;20100;-75
2023/06/03 11:01:08;;;;;;;0.77;0.77;;;;;;;20.12;42.39;102430.66;4993310;28;20137;-76
2023/06/03 11:03:53;;;;;;;0.82;0.70;;;;;;;20.15;41.94;102423.28;4992885;28;20132;-75
2023/06/03 11:06:39;;;;;;;1.70;0.77;;;;;;;20.17;42.68;102424.06;4994450;28;20052;-74
2023/06/03 11:09:34;;;;;;;1.92;1.00;;;;;;;20.23;39.94;102430.88;4994228;28;20165;-75
2023/06/03 11:12:18;;;;;;;1.35;0.70;;;;;;;20.16;41.83;102422.31;4993076;28;20069;-75
2023/06/03 11:15:02;;;;;;;1.25;0.70;;;;;;;20.19;42.30;102422.16;4994287;28;20943;-76
2023/06/03 11:18:18;;;;;;;1.63;0.73;;;;;;;20.33;39.85;102421.28;4994666;28;20108;-75
2023/06/03 11:21:02;;;;;;;0.80;0.80;;;;;;;20.32;41.90;102414.16;4992949;28;20794;-75
2023/06/03 11:23:46;;;;;;;1.00;0.80;;;;;;;20.37;42.43;102416.56;4994333;28;20176;-75
2023/06/03 11:26:32;;;;;;;1.63;0.80;;;;;;;20.38;42.80;102423.69;4994269;28;20523;-75
2023/06/03 11:29:48;;;;;;;0.98;0.80;;;;;;;20.38;39.36;102417.44;4993332;28;20152;-76
2023/06/03 11:32:35;;;;;;;1.65;0.70;;;;;;;20.30;42.23;102423.28;5001006;28;20079;-76
2023/06/03 11:35:27;;;;;;;0.90;0.75;;;;;;;20.27;41.42;102415.44;5001758;28;20155;-74
2023/06/03 11:38:12;;;;;;;1.65;0.70;;;;;;;20.38;41.85;102421.00;5016473;28;20039;-74
2023/06/03 11:40:56;;;;;;;0.80;0.80;;;;;;;20.43;42.19;102415.34;5017090;28;20504;-74
2023/06/03 11:44:18;;;;;;;1.10;0.85;;;;;;;20.43;39.72;102418.88;5019242;28;21354;-75
2023/06/03 11:47:04;;;;;;;0.80;0.60;;;;;;;20.31;41.00;102420.50;5021179;28;20325;-76
2023/06/03 11:49:47;;;;;;;0.88;0.73;;;;;;;20.18;39.66;102424.91;5019518;28;20075;-76
2023/06/03 11:52:36;;;;;;;1.48;0.80;;;;;;;20.10;41.08;102421.84;5005613;28;20044;-74
2023/06/03 11:55:25;;;;;;;2.05;0.68;;;;;;;20.07;39.59;102423.78;5020404;28;22042;-75
2023/06/03 11:58:22;;;;;;;0.80;0.80;;;;;;;20.06;41.21;102415.78;4990521;28;22034;-75
2023/06/03 12:01:07;;;;;;;0.80;0.80;;;;;;;20.13;40.91;102424.34;4997890;28;20067;-76
2023/06/03 12:03:59;;;;;;;0.75;0.75;;;;;;;20.16;40.35;102419.63;5020947;28;20044;-75
2023/06/03 12:06:43;;;;;;;0.70;0.70;;;;;;;20.29;41.60;102410.81;5020264;28;20195;-74
2023/06/03 12:09:29;;;;;;;1.88;0.70;;;;;;;20.40;42.04;102402.94;5020619;28;20052;-75
2023/06/03 12:12:13;;;;;;;1.92;0.70;;;;;;;20.39;41.17;102401.22;5020336;28;20106;-74
2023/06/03 12:15:05;;;;;;;1.05;0.70;;;;;;;20.23;38.19;102412.06;5005101;28;20049;-76
2023/06/03 12:17:50;;;;;;;1.33;0.73;;;;;;;20.05;39.70;102403.31;5005072;28;20103;-76
2023/06/03 12:20:34;;;;;;;1.15;0.80;;;;;;;19.90;39.39;102403.28;5020999;28;20523;-77
2023/06/03 12:23:19;;;;;;;1.55;0.75;;;;;;;19.87;40.09;102406.13;5018875;28;20091;-76
2023/06/03 12:26:03;;;;;;;2.10;0.73;;;;;;;19.90;40.45;102415.81;5020171;28;20251;-74
2023/06/03 12:28:47;;;;;;;1.15;0.70;;;;;;;19.97;39.87;102406.47;5001253;28;20048;-75
2023/06/03 12:31:31;;;;;;;0.68;0.68;;;;;;;20.01;40.38;102401.75;5020119;28;20236;-75
2023/06/03 12:34:33;;;;;;;0.60;0.60;;;;;;;19.90;38.94;102405.06;5015946;28;20107;-78
2023/06/03 12:37:29;;;;;;;0.80;0.80;;;;;;;20.00;39.54;102406.25;5015656;28;20044;-76
2023/06/03 12:40:23;;;;;;;1.00;0.90;;;;;;;20.04;39.99;102401.59;5004845;28;20059;-75
2023/06/03 12:43:18;;;;;;;1.15;0.75;;;;;;;19.99;39.85;102401.00;5017699;28;20135;-76
2023/06/03 12:46:18;;;;;;;0.98;0.80;;;;;;;20.05;40.20;102396.09;5000895;28;20096;-76
2023/06/03 12:49:15;;;;;;;1.00;0.70;;;;;;;20.17;39.48;102389.13;5014628;28;20143;-75
2023/06/03 12:52:15;;;;;;;1.15;0.90;;;;;;;20.28;40.91;102387.56;5015504;28;20800;-75
2023/06/03 12:54:59;;;;;;;1.17;0.70;;;;;;;20.35;42.34;102388.91;5014913;28;20468;-76
2023/06/03 12:57:46;;;;;;;1.48;0.70;;;;;;;20.38;40.70;102391.44;5001194;28;20037;-75